createdAt,value
2019-05-12T00:00:39.380Z,9.58
2019-05-12T00:01:39.111Z,9.60
2019-05-12T00:02:39.703Z,9.60
2019-05-12T00:03:39.615Z,9.58
2019-05-12T00:04:39.050Z,9.64
2019-05-12T00:05:39.040Z,9.56
2019-05-12T00:06:39.027Z,9.58
2019-05-12T00:07:39.031Z,9.51
2019-05-12T00:08:39.007Z,9.51
2019-05-12T00:09:39.001Z,9.54
2019-05-12T00:10:39.000Z,9.56
2019-05-12T00:11:38.970Z,9.58
2019-05-12T00:12:38.988Z,9.48
2019-05-12T00:13:38.947Z,9.54
2019-05-12T00:14:38.936Z,9.48
2019-05-12T00:15:38.923Z,9.50
2019-05-12T00:16:38.914Z,9.47
2019-05-12T00:17:38.979Z,9.53
2019-05-12T00:18:38.908Z,9.47
2019-05-12T00:19:38.879Z,9.48
2019-05-12T00:20:38.972Z,9.50
2019-05-12T00:21:39.935Z,9.50
2019-05-12T00:22:38.844Z,9.50
2019-05-12T00:23:38.861Z,9.43
2019-05-12T00:24:39.619Z,9.35
2019-05-12T00:25:38.959Z,9.46
2019-05-12T00:26:38.800Z,9.38
2019-05-12T00:27:38.954Z,9.43
2019-05-12T00:28:38.775Z,9.46
2019-05-12T00:29:38.782Z,9.48
2019-05-12T00:30:39.122Z,9.38
2019-05-12T00:31:38.740Z,9.36
2019-05-12T00:32:38.728Z,9.32
2019-05-12T00:33:38.720Z,9.36
2019-05-12T00:34:38.732Z,9.48
2019-05-12T00:35:38.697Z,9.39
2019-05-12T00:36:38.685Z,9.43
2019-05-12T00:37:38.672Z,9.36
2019-05-12T00:38:38.661Z,9.29
2019-05-12T00:39:38.652Z,9.33
2019-05-12T00:40:39.481Z,9.38
2019-05-12T00:41:39.132Z,9.35
2019-05-12T00:42:38.615Z,9.40
2019-05-12T00:43:38.604Z,9.36
2019-05-12T00:44:39.143Z,9.31
2019-05-12T00:45:38.947Z,9.39
2019-05-12T00:46:38.769Z,9.39
2019-05-12T00:47:39.034Z,9.40
2019-05-12T00:48:38.546Z,9.38
2019-05-12T00:49:38.539Z,9.43
2019-05-12T00:50:38.749Z,9.38
2019-05-12T00:51:38.599Z,9.40
2019-05-12T00:52:38.799Z,9.39
2019-05-12T00:53:43.246Z,9.39
2019-05-12T00:54:39.477Z,9.32
2019-05-12T00:55:38.652Z,9.33
2019-05-12T00:56:39.171Z,9.46
2019-05-12T00:57:38.478Z,9.40
2019-05-12T00:58:38.432Z,9.47
2019-05-12T00:59:38.423Z,9.38
2019-05-12T01:00:40.618Z,9.40
2019-05-12T01:01:38.400Z,9.47
2019-05-12T01:02:38.406Z,9.50
2019-05-12T01:03:38.382Z,9.40
2019-05-12T01:04:38.370Z,9.46
2019-05-12T01:05:38.730Z,9.48
2019-05-12T01:06:38.834Z,9.50
2019-05-12T01:07:38.392Z,9.42
2019-05-12T01:08:38.471Z,9.48
2019-05-12T01:09:38.618Z,9.42
2019-05-12T01:10:39.003Z,9.47
2019-05-12T01:11:38.291Z,9.50
2019-05-12T01:12:38.459Z,9.42
2019-05-12T01:13:38.342Z,9.46
2019-05-12T01:14:38.447Z,9.47
2019-05-12T01:15:38.310Z,9.47
2019-05-12T01:16:38.709Z,9.47
2019-05-12T01:17:40.393Z,9.47
2019-05-12T01:18:38.521Z,9.40
2019-05-12T01:19:40.492Z,9.46
2019-05-12T01:20:38.846Z,9.36
2019-05-12T01:21:38.172Z,9.46
2019-05-12T01:22:38.472Z,9.47
2019-05-12T01:23:53.301Z,9.42
2019-05-12T01:24:39.154Z,9.40
2019-05-12T01:25:39.489Z,9.40
2019-05-12T01:26:38.753Z,9.35
2019-05-12T01:27:38.409Z,9.38
2019-05-12T01:28:38.333Z,9.39
2019-05-12T01:29:38.603Z,9.36
2019-05-12T01:30:38.964Z,9.31
2019-05-12T01:31:38.627Z,9.38
2019-05-12T01:32:38.316Z,9.29
2019-05-12T01:33:38.198Z,9.38
2019-05-12T01:34:38.324Z,9.33
2019-05-12T01:35:39.042Z,9.36
2019-05-12T01:36:38.217Z,9.33
2019-05-12T01:37:38.470Z,9.38
2019-05-12T01:38:38.104Z,9.35
2019-05-12T01:39:38.365Z,9.33
2019-05-12T01:40:39.424Z,9.26
2019-05-12T01:41:38.934Z,9.33
2019-05-12T01:42:38.419Z,9.38
2019-05-12T01:43:38.274Z,9.29
2019-05-12T01:44:38.315Z,9.28
2019-05-12T01:45:38.291Z,9.24
2019-05-12T01:46:38.375Z,9.38
2019-05-12T01:47:38.374Z,9.40
2019-05-12T01:48:37.887Z,9.36
2019-05-12T01:49:38.287Z,9.36
2019-05-12T01:50:38.648Z,9.31
2019-05-12T01:51:38.422Z,9.32
2019-05-12T01:52:38.715Z,9.33
2019-05-12T01:53:38.022Z,9.40
2019-05-12T01:54:38.059Z,9.38
2019-05-12T01:55:38.576Z,9.40
2019-05-12T01:56:38.246Z,9.38
2019-05-12T01:57:38.609Z,9.38
2019-05-12T01:58:38.197Z,9.32
2019-05-12T01:59:38.186Z,9.43
2019-05-12T02:00:38.827Z,9.36
2019-05-12T02:01:38.877Z,9.36
2019-05-12T02:02:38.643Z,9.42
2019-05-12T02:03:37.811Z,9.38
2019-05-12T02:04:38.048Z,9.33
2019-05-12T02:05:38.069Z,9.29
2019-05-12T02:06:38.660Z,9.36
2019-05-12T02:07:38.410Z,9.38
2019-05-12T02:08:38.390Z,9.29
2019-05-12T02:09:38.682Z,9.35
2019-05-12T02:10:38.933Z,9.35
2019-05-12T02:11:38.122Z,9.38
2019-05-12T02:12:38.362Z,9.39
2019-05-12T02:13:38.098Z,9.33
2019-05-12T02:14:38.159Z,9.36
2019-05-12T02:15:38.348Z,9.38
2019-05-12T02:16:38.633Z,9.40
2019-05-12T02:17:39.178Z,9.43
2019-05-12T02:18:38.192Z,9.40
2019-05-12T02:19:38.482Z,9.40
2019-05-12T02:20:38.078Z,9.50
2019-05-12T02:21:38.219Z,9.36
2019-05-12T02:22:38.811Z,9.36
2019-05-12T02:23:38.665Z,9.42
2019-05-12T02:24:39.056Z,9.35
2019-05-12T02:25:38.148Z,9.50
2019-05-12T02:26:38.329Z,9.35
2019-05-12T02:27:38.319Z,9.46
2019-05-12T02:28:39.456Z,9.47
2019-05-12T02:29:38.446Z,9.47
2019-05-12T02:30:41.606Z,9.42
2019-05-12T02:31:39.732Z,9.38
2019-05-12T02:32:48.071Z,9.40
2019-05-12T02:33:38.350Z,9.46
2019-05-12T02:34:37.339Z,9.42
2019-05-12T02:35:37.355Z,9.36
2019-05-12T02:36:37.325Z,9.38
2019-05-12T02:37:37.303Z,9.38
2019-05-12T02:38:37.298Z,9.38
2019-05-12T02:39:37.285Z,9.40
2019-05-12T02:40:37.274Z,9.39
2019-05-12T02:41:37.275Z,9.36
2019-05-12T02:42:37.246Z,9.38
2019-05-12T02:43:37.234Z,9.38
2019-05-12T02:44:37.224Z,9.33
2019-05-12T02:45:37.213Z,9.42
2019-05-12T02:46:37.243Z,9.33
2019-05-12T02:47:37.307Z,9.38
2019-05-12T02:48:37.189Z,9.35
2019-05-12T02:49:37.168Z,9.29
2019-05-12T02:50:37.980Z,9.29
2019-05-12T02:51:37.146Z,9.29
2019-05-12T02:52:37.152Z,9.36
2019-05-12T02:53:37.122Z,9.38
2019-05-12T02:54:50.757Z,9.38
2019-05-12T02:55:38.100Z,9.26
2019-05-12T02:56:37.086Z,9.36
2019-05-12T02:57:37.102Z,9.32
2019-05-12T02:58:37.064Z,9.33
2019-05-12T02:59:37.051Z,9.36
2019-05-12T03:00:37.199Z,9.33
2019-05-12T03:01:37.033Z,9.36
2019-05-12T03:02:37.025Z,9.40
2019-05-12T03:03:37.030Z,9.26
2019-05-12T03:04:36.994Z,9.35
2019-05-12T03:05:36.985Z,9.35
2019-05-12T03:06:36.972Z,9.38
2019-05-12T03:07:36.961Z,9.40
2019-05-12T03:08:36.993Z,9.33
2019-05-12T03:09:36.939Z,9.33
2019-05-12T03:10:36.963Z,9.38
2019-05-12T03:11:36.918Z,9.36
2019-05-12T03:12:36.903Z,9.32
2019-05-12T03:13:36.898Z,9.29
2019-05-12T03:14:40.527Z,9.24
2019-05-12T03:15:37.704Z,9.29
2019-05-12T03:16:36.895Z,9.28
2019-05-12T03:17:36.859Z,9.29
2019-05-12T03:18:36.840Z,9.32
2019-05-12T03:19:36.853Z,9.23
2019-05-12T03:20:36.814Z,9.26
2019-05-12T03:21:36.806Z,9.28
2019-05-12T03:22:36.794Z,9.21
2019-05-12T03:23:36.784Z,9.29
2019-05-12T03:24:36.768Z,9.28
2019-05-12T03:25:37.311Z,9.24
2019-05-12T03:26:36.755Z,9.32
2019-05-12T03:27:36.733Z,9.28
2019-05-12T03:28:36.726Z,9.35
2019-05-12T03:29:36.712Z,9.36
2019-05-12T03:30:39.100Z,9.31
2019-05-12T03:31:41.353Z,9.24
2019-05-12T03:32:38.354Z,9.31
2019-05-12T03:33:44.092Z,9.29
2019-05-12T03:34:38.746Z,9.24
2019-05-12T03:35:42.684Z,9.26
2019-05-12T03:36:42.564Z,9.23
2019-05-12T03:37:37.621Z,9.24
2019-05-12T03:38:36.608Z,9.23
2019-05-12T03:39:36.600Z,9.23
2019-05-12T03:40:38.288Z,9.20
2019-05-12T03:41:36.592Z,9.17
2019-05-12T03:42:36.563Z,9.20
2019-05-12T03:43:36.570Z,9.23
2019-05-12T03:44:36.540Z,9.24
2019-05-12T03:45:36.722Z,9.18
2019-05-12T03:46:36.563Z,9.21
2019-05-12T03:47:36.508Z,9.21
2019-05-12T03:48:36.502Z,9.29
2019-05-12T03:49:36.484Z,9.18
2019-05-12T03:50:36.582Z,9.28
2019-05-12T03:51:36.460Z,9.24
2019-05-12T03:52:36.470Z,9.20
2019-05-12T03:53:36.438Z,9.14
2019-05-12T03:54:36.441Z,9.14
2019-05-12T03:55:41.969Z,9.13
2019-05-12T03:56:37.405Z,8.99
2019-05-12T03:57:36.411Z,8.99
2019-05-12T03:58:36.383Z,8.99
2019-05-12T03:59:36.373Z,9.11
2019-05-12T04:00:36.706Z,9.11
2019-05-12T04:01:37.019Z,9.04
2019-05-12T04:02:36.364Z,9.04
2019-05-12T04:03:36.326Z,9.05
2019-05-12T04:04:36.314Z,9.05
2019-05-12T04:05:36.412Z,8.94
2019-05-12T04:06:36.291Z,8.98
2019-05-12T04:07:36.279Z,8.99
2019-05-12T04:08:36.285Z,8.98
2019-05-12T04:09:36.258Z,8.95
2019-05-12T04:10:36.858Z,8.89
2019-05-12T04:11:36.254Z,8.94
2019-05-12T04:12:36.226Z,8.94
2019-05-12T04:13:36.239Z,8.96
2019-05-12T04:14:36.203Z,8.96
2019-05-12T04:15:36.194Z,8.89
2019-05-12T04:16:36.734Z,8.95
2019-05-12T04:17:36.167Z,8.96
2019-05-12T04:18:36.161Z,8.76
2019-05-12T04:19:36.164Z,8.79
2019-05-12T04:20:36.544Z,8.77
2019-05-12T04:21:36.122Z,8.79
2019-05-12T04:22:36.110Z,8.86
2019-05-12T04:23:36.098Z,8.77
2019-05-12T04:24:36.114Z,8.89
2019-05-12T04:25:51.074Z,8.79
2019-05-12T04:26:37.075Z,8.89
2019-05-12T04:27:36.053Z,8.89
2019-05-12T04:28:36.045Z,8.89
2019-05-12T04:29:36.042Z,8.95
2019-05-12T04:30:36.196Z,8.95
2019-05-12T04:31:36.013Z,8.92
2019-05-12T04:32:36.042Z,8.83
2019-05-12T04:33:35.989Z,8.76
2019-05-12T04:34:35.971Z,8.81
2019-05-12T04:35:36.171Z,8.80
2019-05-12T04:36:36.060Z,8.71
2019-05-12T04:37:35.937Z,8.68
2019-05-12T04:38:35.928Z,8.81
2019-05-12T04:39:35.916Z,8.76
2019-05-12T04:40:36.514Z,8.81
2019-05-12T04:41:35.911Z,8.77
2019-05-12T04:42:35.880Z,8.77
2019-05-12T04:43:35.869Z,8.79
2019-05-12T04:44:35.859Z,8.81
2019-05-12T04:45:35.865Z,8.81
2019-05-12T04:46:35.858Z,8.66
2019-05-12T04:47:35.829Z,8.70
2019-05-12T04:48:36.158Z,8.68
2019-05-12T04:49:35.811Z,8.66
2019-05-12T04:50:36.429Z,8.62
2019-05-12T04:51:35.807Z,8.66
2019-05-12T04:52:35.768Z,8.70
2019-05-12T04:53:35.758Z,8.77
2019-05-12T04:54:35.801Z,8.65
2019-05-12T04:55:36.385Z,8.74
2019-05-12T04:56:36.289Z,8.65
2019-05-12T04:57:35.748Z,8.63
2019-05-12T04:58:35.701Z,8.65
2019-05-12T04:59:35.694Z,8.62
2019-05-12T05:00:36.143Z,8.65
2019-05-12T05:01:35.702Z,8.68
2019-05-12T05:02:36.598Z,8.77
2019-05-12T05:03:35.646Z,8.66
2019-05-12T05:04:35.631Z,8.68
2019-05-12T05:05:36.338Z,8.66
2019-05-12T05:06:35.611Z,8.62
2019-05-12T05:07:36.092Z,8.66
2019-05-12T05:08:35.589Z,8.66
2019-05-12T05:09:35.577Z,8.63
2019-05-12T05:10:35.566Z,8.53
2019-05-12T05:11:35.553Z,8.55
2019-05-12T05:12:35.542Z,8.59
2019-05-12T05:13:39.533Z,8.59
2019-05-12T05:14:35.519Z,8.56
2019-05-12T05:15:35.641Z,8.61
2019-05-12T05:16:35.499Z,8.58
2019-05-12T05:17:35.488Z,8.50
2019-05-12T05:18:35.507Z,8.53
2019-05-12T05:19:35.462Z,8.53
2019-05-12T05:20:35.451Z,8.56
2019-05-12T05:21:35.442Z,8.61
2019-05-12T05:22:38.098Z,8.56
2019-05-12T05:23:35.417Z,8.53
2019-05-12T05:24:35.421Z,8.52
2019-05-12T05:25:35.394Z,8.53
2019-05-12T05:26:37.455Z,8.61
2019-05-12T05:27:35.371Z,8.65
2019-05-12T05:28:35.361Z,8.77
2019-05-12T05:29:37.251Z,8.74
2019-05-12T05:30:35.339Z,8.86
2019-05-12T05:31:35.329Z,8.87
2019-05-12T05:32:35.314Z,8.77
2019-05-12T05:33:35.304Z,8.87
2019-05-12T05:34:35.296Z,8.79
2019-05-12T05:35:39.607Z,8.80
2019-05-12T05:36:35.277Z,8.77
2019-05-12T05:37:36.915Z,8.81
2019-05-12T05:38:36.254Z,8.81
2019-05-12T05:39:43.186Z,8.94
2019-05-12T05:40:36.258Z,9.01
2019-05-12T05:41:35.348Z,9.02
2019-05-12T05:42:35.695Z,9.05
2019-05-12T05:43:35.192Z,8.98
2019-05-12T05:44:37.947Z,9.11
2019-05-12T05:45:35.578Z,9.15
2019-05-12T05:46:38.877Z,9.15
2019-05-12T05:47:36.148Z,8.98
2019-05-12T05:48:35.293Z,8.99
2019-05-12T05:49:35.125Z,9.02
2019-05-12T05:50:35.130Z,8.99
2019-05-12T05:51:39.478Z,8.98
2019-05-12T05:52:38.712Z,9.05
2019-05-12T05:53:35.080Z,9.05
2019-05-12T05:54:36.377Z,9.02
2019-05-12T05:55:35.093Z,9.14
2019-05-12T05:56:41.792Z,9.18
2019-05-12T05:57:36.038Z,9.14
2019-05-12T05:58:35.023Z,9.14
2019-05-12T05:59:36.823Z,9.28
2019-05-12T06:00:39.098Z,9.14
2019-05-12T06:01:35.209Z,9.14
2019-05-12T06:02:40.246Z,9.02
2019-05-12T06:03:35.965Z,8.98
2019-05-12T06:04:39.234Z,9.01
2019-05-12T06:05:38.600Z,9.13
2019-05-12T06:06:34.931Z,9.05
2019-05-12T06:07:39.049Z,8.98
2019-05-12T06:08:34.910Z,8.95
2019-05-12T06:09:34.900Z,8.87
2019-05-12T06:10:39.844Z,8.95
2019-05-12T06:11:35.876Z,8.92
2019-05-12T06:12:34.866Z,8.99
2019-05-12T06:13:34.852Z,8.95
2019-05-12T06:14:34.842Z,8.94
2019-05-12T06:15:40.445Z,8.92
2019-05-12T06:16:35.820Z,8.98
2019-05-12T06:17:34.808Z,8.96
2019-05-12T06:18:34.796Z,9.04
2019-05-12T06:19:34.785Z,9.04
2019-05-12T06:20:37.948Z,9.02
2019-05-12T06:21:38.172Z,9.04
2019-05-12T06:22:34.757Z,9.02
2019-05-12T06:23:39.005Z,8.91
2019-05-12T06:24:34.743Z,8.92
2019-05-12T06:25:45.537Z,8.95
2019-05-12T06:26:35.994Z,8.96
2019-05-12T06:27:35.948Z,9.05
2019-05-12T06:28:39.462Z,9.11
2019-05-12T06:29:35.676Z,9.20
2019-05-12T06:30:37.384Z,9.40
2019-05-12T06:31:35.649Z,9.35
2019-05-12T06:32:34.642Z,9.56
2019-05-12T06:33:36.294Z,9.60
2019-05-12T06:34:34.618Z,9.56
2019-05-12T06:35:40.006Z,9.61
2019-05-12T06:36:35.589Z,9.66
2019-05-12T06:37:34.582Z,9.71
2019-05-12T06:38:38.732Z,9.68
2019-05-12T06:39:35.558Z,9.79
2019-05-12T06:40:41.033Z,9.81
2019-05-12T06:41:35.536Z,9.83
2019-05-12T06:42:34.525Z,9.83
2019-05-12T06:43:38.766Z,9.68
2019-05-12T06:44:35.501Z,9.54
2019-05-12T06:45:41.879Z,9.60
2019-05-12T06:46:35.479Z,9.58
2019-05-12T06:47:34.652Z,9.51
2019-05-12T06:48:34.456Z,9.57
2019-05-12T06:49:34.445Z,9.50
2019-05-12T06:50:38.957Z,9.54
2019-05-12T06:51:35.446Z,9.53
2019-05-12T06:52:38.698Z,9.58
2019-05-12T06:53:35.402Z,9.64
2019-05-12T06:54:34.387Z,9.74
2019-05-12T06:55:39.024Z,9.75
2019-05-12T06:56:35.362Z,9.81
2019-05-12T06:57:34.414Z,9.69
2019-05-12T06:58:34.614Z,9.84
2019-05-12T06:59:34.333Z,9.96
2019-05-12T07:00:35.247Z,9.89
2019-05-12T07:01:34.308Z,9.90
2019-05-12T07:02:37.016Z,9.83
2019-05-12T07:03:37.262Z,9.91
2019-05-12T07:04:34.274Z,9.93
2019-05-12T07:05:38.301Z,9.86
2019-05-12T07:06:34.249Z,9.89
2019-05-12T07:07:41.845Z,9.94
2019-05-12T07:08:38.249Z,10.04
2019-05-12T07:09:36.680Z,10.04
2019-05-12T07:10:42.695Z,10.12
2019-05-12T07:11:44.668Z,10.05
2019-05-12T07:12:43.634Z,10.08
2019-05-12T07:13:35.170Z,10.07
2019-05-12T07:14:34.668Z,10.09
2019-05-12T07:15:35.776Z,10.27
2019-05-12T07:16:35.136Z,10.32
2019-05-12T07:17:37.259Z,10.18
2019-05-12T07:18:37.096Z,10.32
2019-05-12T07:19:34.101Z,10.22
2019-05-12T07:20:35.401Z,10.26
2019-05-12T07:21:34.078Z,10.23
2019-05-12T07:22:43.762Z,10.33
2019-05-12T07:23:35.055Z,10.25
2019-05-12T07:24:34.206Z,10.36
2019-05-12T07:25:36.619Z,10.42
2019-05-12T07:26:34.021Z,10.51
2019-05-12T07:27:39.297Z,10.51
2019-05-12T07:28:36.294Z,10.55
2019-05-12T07:29:34.988Z,10.48
2019-05-12T07:30:35.202Z,10.41
2019-05-12T07:31:33.962Z,10.36
2019-05-12T07:32:34.455Z,10.27
2019-05-12T07:33:41.413Z,10.27
2019-05-12T07:34:34.929Z,10.33
2019-05-12T07:35:34.185Z,10.36
2019-05-12T07:36:33.906Z,10.29
2019-05-12T07:37:34.031Z,10.27
2019-05-12T07:38:34.398Z,10.22
2019-05-12T07:39:36.954Z,10.18
2019-05-12T07:40:37.702Z,10.22
2019-05-12T07:41:34.302Z,10.33
2019-05-12T07:42:39.282Z,10.30
2019-05-12T07:43:34.824Z,10.33
2019-05-12T07:44:39.764Z,10.34
2019-05-12T07:45:34.819Z,10.56
2019-05-12T07:46:34.348Z,10.45
2019-05-12T07:47:33.781Z,10.38
2019-05-12T07:48:33.773Z,10.48
2019-05-12T07:49:37.813Z,10.47
2019-05-12T07:50:34.529Z,10.51
2019-05-12T07:51:38.792Z,10.74
2019-05-12T07:52:34.744Z,10.86
2019-05-12T07:53:33.899Z,10.82
2019-05-12T07:54:37.326Z,10.89
2019-05-12T07:55:34.313Z,10.91
2019-05-12T07:56:35.799Z,10.91
2019-05-12T07:57:37.946Z,11.03
2019-05-12T07:58:34.657Z,10.96
2019-05-12T07:59:38.919Z,11.09
2019-05-12T08:00:34.650Z,11.43
2019-05-12T08:01:35.791Z,11.52
2019-05-12T08:02:35.669Z,11.60
2019-05-12T08:03:34.555Z,11.70
2019-05-12T08:04:39.656Z,11.67
2019-05-12T08:05:34.596Z,11.83
2019-05-12T08:06:41.433Z,11.80
2019-05-12T08:07:34.551Z,11.80
2019-05-12T08:08:34.033Z,11.85
2019-05-12T08:09:36.301Z,11.79
2019-05-12T08:10:34.311Z,11.94
2019-05-12T08:11:36.719Z,11.96
2019-05-12T08:12:34.064Z,12.35
2019-05-12T08:13:37.605Z,12.20
2019-05-12T08:14:34.473Z,12.34
2019-05-12T08:15:34.153Z,12.07
2019-05-12T08:16:36.777Z,12.10
2019-05-12T08:17:33.746Z,12.12
2019-05-12T08:18:44.392Z,12.07
2019-05-12T08:19:33.921Z,12.39
2019-05-12T08:20:43.361Z,12.46
2019-05-12T08:21:34.907Z,12.54
2019-05-12T08:22:34.709Z,12.74
2019-05-12T08:23:33.880Z,12.74
2019-05-12T08:24:36.852Z,12.72
2019-05-12T08:25:34.413Z,12.75
2019-05-12T08:26:33.545Z,12.57
2019-05-12T08:27:34.015Z,12.54
2019-05-12T08:28:36.213Z,12.52
2019-05-12T08:29:34.324Z,12.77
2019-05-12T08:30:33.682Z,13.05
2019-05-12T08:31:40.160Z,13.55
2019-05-12T08:32:34.266Z,13.81
2019-05-12T08:33:34.752Z,13.82
2019-05-12T08:34:34.168Z,13.70
2019-05-12T08:35:37.503Z,13.82
2019-05-12T08:36:34.222Z,13.81
2019-05-12T08:37:33.434Z,13.69
2019-05-12T08:38:33.723Z,13.51
2019-05-12T08:39:33.718Z,13.49
2019-05-12T08:40:34.101Z,13.28
2019-05-12T08:41:34.090Z,13.19
2019-05-12T08:42:34.431Z,13.08
2019-05-12T08:43:34.353Z,12.89
2019-05-12T08:44:39.567Z,12.85
2019-05-12T08:45:37.366Z,12.75
2019-05-12T08:46:34.429Z,12.64
2019-05-12T08:47:35.558Z,12.77
2019-05-12T08:48:34.346Z,12.86
2019-05-12T08:49:49.202Z,12.78
2019-05-12T08:50:36.115Z,12.83
2019-05-12T08:51:33.896Z,12.74
2019-05-12T08:52:37.106Z,12.71
2019-05-12T08:53:34.027Z,12.79
2019-05-12T08:54:33.659Z,12.85
2019-05-12T08:55:35.682Z,12.95
2019-05-12T08:56:33.315Z,13.01
2019-05-12T08:57:40.840Z,13.33
2019-05-12T08:58:46.859Z,13.51
2019-05-12T08:59:34.249Z,13.70
2019-05-12T09:00:34.149Z,13.87
2019-05-12T09:01:34.396Z,13.87
2019-05-12T09:02:34.448Z,13.67
2019-05-12T09:03:33.571Z,13.60
2019-05-12T09:04:33.932Z,13.36
2019-05-12T09:05:34.590Z,13.30
2019-05-12T09:06:34.373Z,13.12
2019-05-12T09:07:38.403Z,13.17
2019-05-12T09:08:37.279Z,13.25
2019-05-12T09:09:33.851Z,13.45
2019-05-12T09:10:34.269Z,13.69
2019-05-12T09:11:33.518Z,13.84
2019-05-12T09:12:33.732Z,13.87
2019-05-12T09:13:33.913Z,13.85
2019-05-12T09:14:40.714Z,13.88
2019-05-12T09:15:34.521Z,13.73
2019-05-12T09:16:33.557Z,13.60
2019-05-12T09:17:35.631Z,13.30
2019-05-12T09:18:35.259Z,13.07
2019-05-12T09:19:33.751Z,12.90
2019-05-12T09:20:33.140Z,12.87
2019-05-12T09:21:36.562Z,13.03
2019-05-12T09:22:34.348Z,13.10
2019-05-12T09:23:40.757Z,13.38
2019-05-12T09:24:33.840Z,13.64
2019-05-12T09:25:34.116Z,13.77
2019-05-12T09:26:34.368Z,13.96
2019-05-12T09:27:33.502Z,14.04
2019-05-12T09:28:44.435Z,14.25
2019-05-12T09:29:34.138Z,14.52
2019-05-12T09:30:33.709Z,14.84
2019-05-12T09:31:33.601Z,14.96
2019-05-12T09:32:33.846Z,15.02
2019-05-12T09:33:34.689Z,14.81
2019-05-12T09:34:33.541Z,14.78
2019-05-12T09:35:34.849Z,14.94
2019-05-12T09:36:33.987Z,15.03
2019-05-12T09:37:38.788Z,15.17
2019-05-12T09:38:33.517Z,15.35
2019-05-12T09:39:34.179Z,15.68
2019-05-12T09:40:35.630Z,15.83
2019-05-12T09:41:35.924Z,16.00
2019-05-12T09:42:33.543Z,16.35
2019-05-12T09:43:34.364Z,16.48
2019-05-12T09:44:34.122Z,16.68
2019-05-12T09:45:33.409Z,16.93
2019-05-12T09:46:34.360Z,17.12
2019-05-12T09:47:34.353Z,17.08
2019-05-12T09:48:33.448Z,16.98
2019-05-12T09:49:38.607Z,17.06
2019-05-12T09:50:34.080Z,17.86
2019-05-12T09:51:41.046Z,18.57
2019-05-12T09:52:33.523Z,19.40
2019-05-12T09:53:34.144Z,20.32
2019-05-12T09:54:35.546Z,20.97
2019-05-12T09:55:34.210Z,21.21
2019-05-12T09:56:34.202Z,21.71
2019-05-12T09:57:40.693Z,22.12
2019-05-12T09:58:33.688Z,22.35
2019-05-12T09:59:33.591Z,22.14
2019-05-12T10:00:35.966Z,21.47
2019-05-12T10:01:35.314Z,20.59
2019-05-12T10:02:33.247Z,20.31
2019-05-12T10:03:38.845Z,20.39
2019-05-12T10:04:33.229Z,20.70
2019-05-12T10:05:39.383Z,21.17
2019-05-12T10:06:33.952Z,21.31
2019-05-12T10:07:33.964Z,21.86
2019-05-12T10:08:35.671Z,22.14
2019-05-12T10:09:33.556Z,22.60
2019-05-12T10:10:38.174Z,22.54
2019-05-12T10:11:33.141Z,22.43
2019-05-12T10:12:36.605Z,22.76
2019-05-12T10:13:33.122Z,22.92
2019-05-12T10:14:32.111Z,23.13
2019-05-12T10:15:33.122Z,23.40
2019-05-12T10:16:33.421Z,23.84
2019-05-12T10:17:34.017Z,24.05
2019-05-12T10:18:33.641Z,22.72
2019-05-12T10:19:33.982Z,22.65
2019-05-12T10:20:35.372Z,20.88
2019-05-12T10:21:33.032Z,19.92
2019-05-12T10:22:37.048Z,21.32
2019-05-12T10:23:34.040Z,22.30
2019-05-12T10:24:40.570Z,23.02
2019-05-12T10:25:33.948Z,23.01
2019-05-12T10:26:34.121Z,23.42
2019-05-12T10:27:34.495Z,23.54
2019-05-12T10:28:31.958Z,23.66
2019-05-12T10:29:32.427Z,23.28
2019-05-12T10:30:34.050Z,23.40
2019-05-12T10:31:35.761Z,23.69
2019-05-12T10:32:34.260Z,24.27
2019-05-12T10:33:33.792Z,24.71
2019-05-12T10:34:35.780Z,24.65
2019-05-12T10:35:34.966Z,24.13
2019-05-12T10:36:33.720Z,24.09
2019-05-12T10:37:31.858Z,24.62
2019-05-12T10:38:34.219Z,24.85
2019-05-12T10:39:33.435Z,25.20
2019-05-12T10:40:33.875Z,25.55
2019-05-12T10:41:34.131Z,26.10
2019-05-12T10:42:33.637Z,26.15
2019-05-12T10:43:34.090Z,26.29
2019-05-12T10:44:37.633Z,25.47
2019-05-12T10:45:32.779Z,25.60
2019-05-12T10:46:31.754Z,25.72
2019-05-12T10:47:33.999Z,25.75
2019-05-12T10:48:33.717Z,25.73
2019-05-12T10:49:33.677Z,25.67
2019-05-12T10:50:33.821Z,25.61
2019-05-12T10:51:34.248Z,25.80
2019-05-12T10:52:36.995Z,25.87
2019-05-12T10:53:34.129Z,25.39
2019-05-12T10:54:31.668Z,25.08
2019-05-12T10:55:33.588Z,25.10
2019-05-12T10:56:34.639Z,24.78
2019-05-12T10:57:33.394Z,24.93
2019-05-12T10:58:33.549Z,25.52
2019-05-12T10:59:45.247Z,26.07
2019-05-12T11:00:33.746Z,26.17
2019-05-12T11:01:31.592Z,26.09
2019-05-12T11:02:33.323Z,25.77
2019-05-12T11:03:33.649Z,24.68
2019-05-12T11:04:36.978Z,25.06
2019-05-12T11:05:33.874Z,25.39
2019-05-12T11:06:33.941Z,25.32
2019-05-12T11:07:31.529Z,25.35
2019-05-12T11:08:33.287Z,25.33
2019-05-12T11:09:33.918Z,25.45
2019-05-12T11:10:31.514Z,25.73
2019-05-12T11:11:32.924Z,26.30
2019-05-12T11:12:33.367Z,26.82
2019-05-12T11:13:33.678Z,26.39
2019-05-12T11:14:31.449Z,26.39
2019-05-12T11:15:33.931Z,26.51
2019-05-12T11:16:32.944Z,26.15
2019-05-12T11:17:33.492Z,26.39
2019-05-12T11:18:31.406Z,26.50
2019-05-12T11:19:33.584Z,26.99
2019-05-12T11:20:34.067Z,25.90
2019-05-12T11:21:33.523Z,25.46
2019-05-12T11:22:33.309Z,23.80
2019-05-12T11:23:31.354Z,22.79
2019-05-12T11:24:33.571Z,22.82
2019-05-12T11:25:33.738Z,23.39
2019-05-12T11:26:31.322Z,24.09
2019-05-12T11:27:31.321Z,24.45
2019-05-12T11:28:33.481Z,24.78
2019-05-12T11:29:43.334Z,24.50
2019-05-12T11:30:34.310Z,23.15
2019-05-12T11:31:33.355Z,23.54
2019-05-12T11:32:34.961Z,23.17
2019-05-12T11:33:34.104Z,23.17
2019-05-12T11:34:33.168Z,23.51
2019-05-12T11:35:31.234Z,23.65
2019-05-12T11:36:31.210Z,24.20
2019-05-12T11:37:31.195Z,24.40
2019-05-12T11:38:31.189Z,24.21
2019-05-12T11:39:36.683Z,23.75
2019-05-12T11:40:34.396Z,22.82
2019-05-12T11:41:32.927Z,22.35
2019-05-12T11:42:33.455Z,22.05
2019-05-12T11:43:31.127Z,22.03
2019-05-12T11:44:31.124Z,21.72
2019-05-12T11:45:33.536Z,21.79
2019-05-12T11:46:34.091Z,21.75
2019-05-12T11:47:34.610Z,21.16
2019-05-12T11:48:33.836Z,20.03
2019-05-12T11:49:33.214Z,19.84
2019-05-12T11:50:31.066Z,19.77
2019-05-12T11:51:31.037Z,19.77
2019-05-12T11:52:32.964Z,19.68
2019-05-12T11:53:32.876Z,19.77
2019-05-12T11:54:31.001Z,19.84
2019-05-12T11:55:31.852Z,19.63
2019-05-12T11:56:30.979Z,19.40
2019-05-12T11:57:30.967Z,19.46
2019-05-12T11:58:30.954Z,19.33
2019-05-12T11:59:30.944Z,19.23
2019-05-12T12:00:30.950Z,18.99
2019-05-12T12:01:30.921Z,18.98
2019-05-12T12:02:30.911Z,19.07
2019-05-12T12:03:30.900Z,18.98
2019-05-12T12:04:30.886Z,18.72
2019-05-12T12:05:30.893Z,18.47
2019-05-12T12:06:33.071Z,18.23
2019-05-12T12:07:33.148Z,18.27
2019-05-12T12:08:33.697Z,18.26
2019-05-12T12:09:31.828Z,18.30
2019-05-12T12:10:35.445Z,18.37
2019-05-12T12:11:34.136Z,18.35
2019-05-12T12:12:30.796Z,18.17
2019-05-12T12:13:30.789Z,17.95
2019-05-12T12:14:31.893Z,17.97
2019-05-12T12:15:30.779Z,18.12
2019-05-12T12:16:30.749Z,18.17
2019-05-12T12:17:32.619Z,18.41
2019-05-12T12:18:30.729Z,18.47
2019-05-12T12:19:38.924Z,18.48
2019-05-12T12:20:33.790Z,18.32
2019-05-12T12:21:34.274Z,18.33
2019-05-12T12:22:30.691Z,18.35
2019-05-12T12:23:30.671Z,18.32
2019-05-12T12:24:31.623Z,18.44
2019-05-12T12:25:30.665Z,18.57
2019-05-12T12:26:33.982Z,18.72
2019-05-12T12:27:31.639Z,18.66
2019-05-12T12:28:30.618Z,18.57
2019-05-12T12:29:30.603Z,18.37
2019-05-12T12:30:38.235Z,18.29
2019-05-12T12:31:37.251Z,18.18
2019-05-12T12:32:33.804Z,18.17
2019-05-12T12:33:34.371Z,18.05
2019-05-12T12:34:33.175Z,17.96
2019-05-12T12:35:30.552Z,17.75
2019-05-12T12:36:30.524Z,17.71
2019-05-12T12:37:30.513Z,17.63
2019-05-12T12:38:30.502Z,17.59
2019-05-12T12:39:30.493Z,17.44
2019-05-12T12:40:30.498Z,17.18
2019-05-12T12:41:30.467Z,17.25
2019-05-12T12:42:35.778Z,17.34
2019-05-12T12:43:31.442Z,17.44
2019-05-12T12:44:30.435Z,17.38
2019-05-12T12:45:35.698Z,17.41
2019-05-12T12:46:33.690Z,17.41
2019-05-12T12:47:30.399Z,17.46
2019-05-12T12:48:30.388Z,17.51
2019-05-12T12:49:30.378Z,17.56
2019-05-12T12:50:30.821Z,17.63
2019-05-12T12:51:30.354Z,17.82
2019-05-12T12:52:30.344Z,17.92
2019-05-12T12:53:30.330Z,18.07
2019-05-12T12:54:30.323Z,18.20
2019-05-12T12:55:30.326Z,18.23
2019-05-12T12:56:30.430Z,18.17
2019-05-12T12:57:33.396Z,18.08
2019-05-12T12:58:31.560Z,18.21
2019-05-12T12:59:30.264Z,18.20
2019-05-12T13:00:45.421Z,18.08
2019-05-12T13:01:33.509Z,18.14
2019-05-12T13:02:30.227Z,18.17
2019-05-12T13:03:30.310Z,18.08
2019-05-12T13:04:30.205Z,18.20
2019-05-12T13:05:30.210Z,18.23
2019-05-12T13:06:30.183Z,18.44